Time;durP1;ratioP1;P1;durP2;ratioP2;P2;SDS_P1;SDS_P2;PMS_P1;PMS_P2;Temp;Humidity;BMP_temperature;BMP_pressure;BME280_temperature;BME280_humidity;BME280_pressure;Samples;Min_cycle;Max_cycle;Signal;HPM_P1;HPM_P2
2021/05/03 00:00:05;;;;;;;5.00;4.50;;;11.80;40.10;;;;;;5094919;28;20673;-52
2021/05/03 00:02:32;;;;;;;4.87;3.70;;;11.70;40.10;;;;;;5095675;28;20632;-53
2021/05/03 00:04:59;;;;;;;4.73;4.33;;;11.70;40.00;;;;;;5094431;28;20693;-52
2021/05/03 00:07:26;;;;;;;4.17;3.47;;;11.70;40.00;;;;;;5094815;28;20656;-52
2021/05/03 00:09:53;;;;;;;3.67;3.37;;;11.70;40.20;;;;;;5084481;28;21222;-52
2021/05/03 00:12:20;;;;;;;6.20;4.60;;;11.70;40.30;;;;;;5094997;28;20620;-52
2021/05/03 00:14:46;;;;;;;3.90;3.20;;;11.60;40.40;;;;;;5095227;28;20673;-52
2021/05/03 00:17:14;;;;;;;3.90;3.43;;;11.60;40.70;;;;;;5094861;28;20624;-52
2021/05/03 00:19:41;;;;;;;4.50;4.10;;;11.60;40.40;;;;;;5094128;28;20694;-52
2021/05/03 00:22:07;;;;;;;4.87;4.20;;;11.60;40.40;;;;;;5095166;28;20628;-52
2021/05/03 00:24:34;;;;;;;5.60;4.10;;;11.60;40.40;;;;;;5094997;28;20616;-52
2021/05/03 00:27:01;;;;;;;4.70;3.80;;;11.60;40.60;;;;;;5095097;28;20659;-53
2021/05/03 00:29:27;;;;;;;4.53;3.93;;;11.60;40.80;;;;;;5093777;28;20628;-53
2021/05/03 00:31:54;;;;;;;4.43;4.03;;;11.60;40.80;;;;;;5094364;28;21183;-55
2021/05/03 00:34:21;;;;;;;3.70;3.40;;;11.50;40.70;;;;;;5092608;28;20652;-54
2021/05/03 00:36:48;;;;;;;9.53;3.40;;;11.50;40.70;;;;;;5094863;28;20700;-52
2021/05/03 00:39:15;;;;;;;4.60;3.90;;;11.50;40.70;;;;;;5091951;28;20746;-53
2021/05/03 00:41:41;;;;;;;3.43;3.13;;;11.40;40.90;;;;;;5073889;28;20699;-53
2021/05/03 00:44:08;;;;;;;4.10;3.63;;;11.40;41.00;;;;;;5088924;28;20662;-53
2021/05/03 00:46:38;;;;;;;4.17;3.77;;;11.40;41.00;;;;;;5094023;28;20683;-53
2021/05/03 00:49:05;;;;;;;4.00;3.23;;;11.40;41.00;;;;;;5094076;28;21009;-51
2021/05/03 00:51:32;;;;;;;6.33;3.27;;;11.40;41.10;;;;;;5094299;28;20995;-52
2021/05/03 00:53:59;;;;;;;4.00;3.50;;;11.40;40.90;;;;;;5094007;28;20649;-52
2021/05/03 00:56:26;;;;;;;3.13;2.93;;;11.40;41.00;;;;;;5093939;28;21302;-53
2021/05/03 00:58:52;;;;;;;3.80;3.40;;;11.40;41.00;;;;;;5085499;28;20650;-53
2021/05/03 01:01:19;;;;;;;2.97;2.67;;;11.40;41.00;;;;;;5073872;28;20666;-52
2021/05/03 01:03:46;;;;;;;6.60;3.63;;;11.30;41.00;;;;;;5092548;28;20636;-53
2021/05/03 01:06:13;;;;;;;3.87;3.57;;;11.30;41.00;;;;;;5093590;28;20652;-53
2021/05/03 01:08:40;;;;;;;4.53;4.10;;;11.30;41.10;;;;;;5092893;28;20646;-52
2021/05/03 01:11:07;;;;;;;3.80;3.50;;;11.30;41.10;;;;;;5093812;28;20673;-54
2021/05/03 01:13:34;;;;;;;3.63;3.30;;;11.30;41.10;;;;;;5092642;28;20628;-53
2021/05/03 01:16:01;;;;;;;4.57;3.43;;;11.30;41.10;;;;;;5093747;28;21068;-54
2021/05/03 01:18:29;;;;;;;3.60;3.30;;;11.20;41.20;;;;;;5093466;28;21224;-54
2021/05/03 01:20:57;;;;;;;4.33;3.27;;;11.20;41.20;;;;;;5093525;28;21029;-54
2021/05/03 01:23:24;;;;;;;5.30;4.73;;;11.20;41.20;;;;;;5088254;28;20623;-54
2021/05/03 01:25:50;;;;;;;4.47;3.70;;;11.20;41.40;;;;;;5093623;28;20655;-54
2021/05/03 01:28:17;;;;;;;4.27;3.70;;;11.20;41.50;;;;;;5094135;28;20651;-53
2021/05/03 01:30:45;;;;;;;4.53;3.57;;;11.00;41.60;;;;;;5113789;28;21037;-52
2021/05/03 01:33:12;;;;;;;3.90;3.60;;;11.00;41.70;;;;;;5100566;28;20681;-53
2021/05/03 01:35:39;;;;;;;5.00;3.90;;;11.00;41.80;;;;;;5093229;28;21208;-52
2021/05/03 01:38:07;;;;;;;4.43;3.83;;;10.90;41.80;;;;;;5083762;28;20628;-53
2021/05/03 01:40:36;;;;;;;3.90;3.60;;;10.90;41.80;;;;;;5077296;28;20674;-53
2021/05/03 01:43:13;;;;;;;5.20;3.90;;;10.70;41.90;;;;;;5093241;28;20627;-52
2021/05/03 01:45:40;;;;;;;4.10;3.80;;;10.60;42.30;;;;;;5089959;28;20654;-53
2021/05/03 01:48:07;;;;;;;4.43;4.03;;;10.60;42.20;;;;;;5092914;28;20624;-52
2021/05/03 01:50:34;;;;;;;3.53;3.23;;;10.70;42.30;;;;;;5092984;28;21049;-53
2021/05/03 01:53:01;;;;;;;5.70;3.90;;;10.70;42.40;;;;;;5093191;28;20643;-51
2021/05/03 01:55:29;;;;;;;4.03;3.63;;;10.70;42.40;;;;;;5093117;28;21287;-52
2021/05/03 01:57:56;;;;;;;4.37;3.93;;;10.60;42.40;;;;;;5103370;28;20682;-52
2021/05/03 02:00:23;;;;;;;4.53;3.77;;;10.70;42.50;;;;;;5092686;28;20709;-52
2021/05/03 02:02:50;;;;;;;5.23;4.03;;;10.70;42.50;;;;;;5093131;28;20634;-53
2021/05/03 02:05:17;;;;;;;4.43;4.03;;;10.70;42.50;;;;;;5092557;28;20682;-54
2021/05/03 02:07:44;;;;;;;3.20;3.00;;;10.70;42.50;;;;;;5092553;28;20981;-54
2021/05/03 02:10:12;;;;;;;5.17;3.40;;;10.60;42.40;;;;;;5092211;28;20641;-54
2021/05/03 02:12:39;;;;;;;4.17;3.20;;;10.60;42.60;;;;;;5093238;28;21020;-54
2021/05/03 02:15:07;;;;;;;3.97;3.67;;;10.60;42.70;;;;;;5092350;28;20644;-52
2021/05/03 02:17:34;;;;;;;3.70;3.27;;;10.60;42.70;;;;;;5092278;28;20980;-53
2021/05/03 02:20:01;;;;;;;3.80;3.50;;;10.60;42.70;;;;;;5080760;28;20653;-54
2021/05/03 02:22:28;;;;;;;4.40;4.10;;;10.60;42.80;;;;;;5072175;28;20786;-54
2021/05/03 02:24:55;;;;;;;3.63;3.17;;;10.50;42.80;;;;;;5071914;28;20673;-54
2021/05/03 02:27:21;;;;;;;3.47;3.17;;;10.60;43.30;;;;;;5074929;28;20651;-52
2021/05/03 02:29:49;;;;;;;7.23;2.73;;;10.50;43.30;;;;;;5092549;28;21195;-52
2021/05/03 02:32:16;;;;;;;4.30;3.90;;;10.40;43.50;;;;;;5092239;28;20657;-51
2021/05/03 02:34:42;;;;;;;3.80;3.40;;;10.50;43.30;;;;;;5091976;28;20624;-51
2021/05/03 02:37:09;;;;;;;4.03;3.30;;;10.50;43.10;;;;;;5091871;28;20654;-53
2021/05/03 02:39:36;;;;;;;4.00;3.70;;;10.50;43.10;;;;;;5092103;28;20660;-51
2021/05/03 02:42:03;;;;;;;4.80;4.40;;;10.50;43.10;;;;;;5092147;28;20623;-51
2021/05/03 02:44:30;;;;;;;5.07;4.57;;;10.50;43.10;;;;;;5092330;28;20638;-51
2021/05/03 02:46:57;;;;;;;4.77;4.33;;;10.50;43.10;;;;;;5091818;28;20662;-53
2021/05/03 02:49:24;;;;;;;4.30;3.90;;;10.50;43.30;;;;;;5091633;28;21164;-52
2021/05/03 02:51:51;;;;;;;4.57;4.20;;;10.50;43.30;;;;;;5092202;28;21485;-54
2021/05/03 02:54:18;;;;;;;4.53;4.20;;;10.50;43.30;;;;;;5090469;28;20688;-54
2021/05/03 02:56:45;;;;;;;5.00;4.50;;;10.40;43.20;;;;;;5091371;28;21199;-54
2021/05/03 02:59:11;;;;;;;4.63;4.33;;;10.40;43.30;;;;;;5091550;28;21448;-54
2021/05/03 03:01:38;;;;;;;4.60;4.20;;;10.40;43.50;;;;;;5091673;28;20623;-53
2021/05/03 03:04:06;;;;;;;5.60;5.10;;;10.40;43.50;;;;;;5092235;28;21034;-53
2021/05/03 03:06:32;;;;;;;5.23;4.67;;;10.40;43.40;;;;;;5091301;28;20692;-53
2021/05/03 03:08:59;;;;;;;5.50;4.07;;;10.30;43.40;;;;;;5091088;28;20647;-54
2021/05/03 03:11:27;;;;;;;5.60;4.50;;;10.30;43.60;;;;;;5091594;28;20639;-53
2021/05/03 03:13:54;;;;;;;4.90;4.03;;;10.30;43.60;;;;;;5072031;28;20677;-52
2021/05/03 03:16:22;;;;;;;3.90;3.60;;;10.20;43.70;;;;;;5083129;28;21180;-52
2021/05/03 03:18:49;;;;;;;4.67;4.27;;;10.10;43.90;;;;;;5070939;28;20719;-54
2021/05/03 03:21:17;;;;;;;4.23;3.93;;;10.10;44.00;;;;;;5071501;28;20628;-54
2021/05/03 03:23:44;;;;;;;4.97;4.47;;;10.10;44.00;;;;;;5072216;28;20654;-54
2021/05/03 03:26:10;;;;;;;5.17;4.70;;;10.10;44.00;;;;;;5090933;28;20702;-54
2021/05/03 03:28:37;;;;;;;5.23;4.80;;;10.10;44.00;;;;;;5090913;28;20998;-54
2021/05/03 03:31:04;;;;;;;6.13;3.83;;;10.10;44.20;;;;;;5090995;28;21036;-54
2021/05/03 03:33:31;;;;;;;5.30;3.97;;;10.00;44.10;;;;;;5090811;28;20658;-54
2021/05/03 03:35:58;;;;;;;6.33;4.20;;;10.00;44.70;;;;;;5070693;28;20687;-54
2021/05/03 03:38:25;;;;;;;4.67;4.27;;;10.00;44.40;;;;;;5070900;28;20663;-54
2021/05/03 03:40:52;;;;;;;3.23;2.93;;;9.90;45.40;;;;;;5070570;28;20660;-54
2021/05/03 03:43:18;;;;;;;3.00;2.80;;;9.80;45.50;;;;;;5063187;28;20631;-54
2021/05/03 03:45:45;;;;;;;7.63;3.90;;;9.80;45.60;;;;;;5090659;28;20693;-52
2021/05/03 03:48:12;;;;;;;4.37;3.97;;;9.80;45.80;;;;;;5090939;28;20983;-53
2021/05/03 03:50:39;;;;;;;4.43;4.13;;;9.70;45.90;;;;;;5091443;28;20643;-54
2021/05/03 03:53:06;;;;;;;4.40;3.30;;;9.60;46.10;;;;;;5090596;28;20973;-53
2021/05/03 03:55:33;;;;;;;3.70;3.20;;;9.60;46.10;;;;;;5089691;28;20659;-54
2021/05/03 03:58:00;;;;;;;5.73;4.00;;;9.70;46.30;;;;;;5090780;28;20631;-53
2021/05/03 04:00:27;;;;;;;4.30;3.97;;;9.60;46.30;;;;;;5090996;28;20683;-53
2021/05/03 04:02:55;;;;;;;4.50;4.20;;;9.60;46.30;;;;;;5090974;28;20635;-52
2021/05/03 04:05:31;;;;;;;4.70;4.30;;;9.60;46.40;;;;;;5090886;28;20656;-52
2021/05/03 04:08:03;;;;;;;5.03;4.53;;;9.60;46.30;;;;;;5090791;28;20683;-51
2021/05/03 04:10:39;;;;;;;4.77;4.37;;;9.60;46.40;;;;;;5090631;28;20630;-52
2021/05/03 04:21:32;;;;;;;4.20;3.90;;;9.50;46.90;;;;;;5090973;28;20628;-52
2021/05/03 04:24:08;;;;;;;4.30;4.00;;;9.60;47.00;;;;;;5090845;28;20628;-52
2021/05/03 04:26:35;;;;;;;5.00;4.50;;;9.60;47.00;;;;;;5072532;28;21308;-51
2021/05/03 04:29:03;;;;;;;4.30;3.90;;;9.60;47.00;;;;;;5088583;28;20623;-52
2021/05/03 04:31:30;;;;;;;5.20;4.17;;;9.60;47.10;;;;;;5090525;28;20635;-52
2021/05/03 04:33:57;;;;;;;7.07;4.10;;;9.60;47.00;;;;;;5086009;28;20693;-52
2021/05/03 04:36:24;;;;;;;5.90;4.73;;;9.60;47.10;;;;;;5089604;28;20717;-51
2021/05/03 04:38:50;;;;;;;6.70;4.70;;;9.60;47.20;;;;;;5089236;28;20825;-52
2021/05/03 04:41:17;;;;;;;6.23;4.87;;;9.50;47.20;;;;;;5090202;28;20630;-52
2021/05/03 04:43:44;;;;;;;6.17;4.90;;;9.50;47.30;;;;;;5092414;28;20727;-52
2021/05/03 04:46:12;;;;;;;4.67;4.27;;;9.40;47.40;;;;;;5093552;28;20678;-52
2021/05/03 04:48:39;;;;;;;5.20;4.70;;;9.50;47.60;;;;;;5093820;28;20623;-53
2021/05/03 04:51:05;;;;;;;6.00;4.40;;;9.50;47.80;;;;;;5092167;28;21000;-54
2021/05/03 04:53:32;;;;;;;4.73;4.33;;;9.50;47.80;;;;;;5093489;28;20685;-53
2021/05/03 04:55:59;;;;;;;6.50;4.97;;;9.50;47.70;;;;;;5089313;28;20708;-53
2021/05/03 04:58:26;;;;;;;4.90;4.50;;;9.40;47.80;;;;;;5093157;28;20622;-53
2021/05/03 05:00:53;;;;;;;4.50;4.10;;;9.50;48.00;;;;;;5093122;28;20688;-52
2021/05/03 05:03:20;;;;;;;9.80;5.93;;;9.50;47.90;;;;;;5089249;28;20634;-53
2021/05/03 05:05:50;;;;;;;6.80;4.53;;;9.60;47.90;;;;;;5093610;28;20694;-53
2021/05/03 05:08:17;;;;;;;6.20;4.80;;;9.50;47.90;;;;;;5086789;28;20624;-54
2021/05/03 05:10:44;;;;;;;7.47;5.30;;;9.60;47.90;;;;;;5086914;28;20644;-54
2021/05/03 05:13:11;;;;;;;5.27;4.73;;;9.60;47.80;;;;;;5092874;28;20631;-52
2021/05/03 05:15:39;;;;;;;4.97;4.53;;;9.70;47.90;;;;;;5093190;28;21231;-54
2021/05/03 05:18:06;;;;;;;9.27;4.63;;;9.70;48.00;;;;;;5092406;28;20631;-53
2021/05/03 05:20:33;;;;;;;5.37;4.87;;;9.60;48.10;;;;;;5093171;28;20648;-51
2021/05/03 05:23:03;;;;;;;6.23;4.27;;;9.60;48.10;;;;;;5093425;28;20631;-52
2021/05/03 05:25:30;;;;;;;4.93;4.53;;;9.70;48.10;;;;;;5092544;28;20719;-52
2021/05/03 05:27:56;;;;;;;5.20;4.80;;;9.70;47.90;;;;;;5092647;28;21113;-52
2021/05/03 05:30:23;;;;;;;5.17;4.30;;;9.80;47.80;;;;;;5092142;28;20623;-54
2021/05/03 05:32:50;;;;;;;5.13;4.47;;;9.80;47.80;;;;;;5088628;28;20743;-53
2021/05/03 05:35:17;;;;;;;7.30;5.87;;;9.80;47.70;;;;;;5087306;28;20694;-53
2021/05/03 05:37:45;;;;;;;4.70;4.30;;;9.90;47.70;;;;;;5074526;28;20638;-54
2021/05/03 05:40:11;;;;;;;6.50;4.73;;;9.90;48.20;;;;;;5089579;28;20667;-54
2021/05/03 05:42:38;;;;;;;4.93;4.47;;;9.90;47.70;;;;;;5078109;28;20629;-53
2021/05/03 05:45:06;;;;;;;9.63;5.73;;;10.00;46.70;;;;;;5090320;28;20712;-54
2021/05/03 05:47:33;;;;;;;5.43;4.93;;;9.90;47.60;;;;;;5085664;28;20665;-54
2021/05/03 05:49:59;;;;;;;6.30;4.20;;;10.00;46.90;;;;;;5094260;28;20676;-54
2021/05/03 05:52:26;;;;;;;4.80;3.90;;;10.00;46.70;;;;;;5092793;28;20624;-54
2021/05/03 05:54:55;;;;;;;4.60;4.20;;;9.90;47.80;;;;;;5089491;28;20627;-53
2021/05/03 05:57:21;;;;;;;5.40;5.00;;;9.80;48.10;;;;;;5092147;28;21016;-54
2021/05/03 05:59:48;;;;;;;10.00;4.90;;;9.80;48.10;;;;;;5092367;28;20656;-52
2021/05/03 06:02:15;;;;;;;5.80;5.23;;;9.90;48.10;;;;;;5092231;28;20685;-52
2021/05/03 06:04:42;;;;;;;5.33;4.83;;;9.90;48.20;;;;;;5092112;28;20673;-54
2021/05/03 06:07:09;;;;;;;7.77;5.43;;;10.00;47.40;;;;;;5092501;28;21137;-54
2021/05/03 06:09:35;;;;;;;11.17;5.20;;;10.10;47.10;;;;;;5091982;28;20624;-54
2021/05/03 06:12:03;;;;;;;5.40;4.53;;;10.10;46.80;;;;;;5092590;28;20628;-53
2021/05/03 06:14:30;;;;;;;6.67;5.37;;;10.20;46.80;;;;;;5092895;28;20650;-52
2021/05/03 06:16:57;;;;;;;5.90;5.30;;;10.20;46.60;;;;;;5091811;28;21200;-51
2021/05/03 06:19:24;;;;;;;5.90;5.40;;;10.30;46.90;;;;;;5091655;28;21085;-51
2021/05/03 06:21:50;;;;;;;7.10;6.40;;;10.30;46.80;;;;;;5095516;28;20908;-52
2021/05/03 06:24:17;;;;;;;5.10;4.80;;;10.40;46.70;;;;;;5091938;28;20624;-52
2021/05/03 06:26:44;;;;;;;6.00;5.37;;;10.50;46.60;;;;;;5073490;28;21296;-53
2021/05/03 06:29:12;;;;;;;6.83;6.13;;;10.50;46.50;;;;;;5091789;28;20628;-53
2021/05/03 06:31:40;;;;;;;7.70;6.17;;;10.60;46.20;;;;;;5091453;28;21025;-53
2021/05/03 06:34:07;;;;;;;7.47;5.30;;;10.70;46.30;;;;;;5093105;28;20625;-54
2021/05/03 06:36:34;;;;;;;6.17;5.57;;;10.70;46.10;;;;;;5091735;28;20713;-52
2021/05/03 06:39:00;;;;;;;5.20;4.70;;;10.70;45.90;;;;;;5091179;28;21169;-53
2021/05/03 06:41:27;;;;;;;5.93;4.80;;;10.80;45.90;;;;;;5091170;28;20656;-53
2021/05/03 06:43:54;;;;;;;6.73;4.70;;;10.90;45.70;;;;;;5091579;28;20681;-54
2021/05/03 06:46:22;;;;;;;6.00;5.40;;;10.90;45.70;;;;;;5090585;28;20990;-54
2021/05/03 06:48:48;;;;;;;6.30;5.80;;;10.90;45.90;;;;;;5090183;28;20624;-54
2021/05/03 06:51:15;;;;;;;6.40;5.90;;;10.90;45.50;;;;;;5087505;28;20749;-53
2021/05/03 06:53:42;;;;;;;5.00;4.60;;;11.00;45.90;;;;;;5091868;28;20620;-56
2021/05/03 06:56:08;;;;;;;5.90;5.40;;;11.10;45.50;;;;;;5091539;28;20644;-54
2021/05/03 06:58:35;;;;;;;5.87;5.37;;;11.20;45.20;;;;;;5085373;28;20995;-52
2021/05/03 07:01:03;;;;;;;6.03;5.63;;;11.30;45.30;;;;;;5088504;28;20656;-54
2021/05/03 07:03:30;;;;;;;6.23;5.63;;;11.50;45.10;;;;;;5089876;28;21250;-52
2021/05/03 07:05:57;;;;;;;6.13;5.43;;;11.70;45.00;;;;;;5095321;28;20644;-53
2021/05/03 07:08:25;;;;;;;5.47;5.07;;;11.90;44.40;;;;;;5092222;28;20631;-53
2021/05/03 07:10:53;;;;;;;6.33;5.77;;;12.10;44.20;;;;;;5090591;28;20669;-53
2021/05/03 07:13:20;;;;;;;5.67;4.40;;;12.40;44.00;;;;;;5090672;28;20990;-54
2021/05/03 07:15:47;;;;;;;5.33;4.83;;;12.60;43.90;;;;;;5090576;28;20721;-53
2021/05/03 07:18:13;;;;;;;5.90;5.40;;;12.80;43.70;;;;;;5090228;28;20644;-54
2021/05/03 07:20:41;;;;;;;9.60;5.57;;;13.00;42.60;;;;;;5090851;28;20648;-52
2021/05/03 07:23:09;;;;;;;8.87;5.47;;;13.00;42.40;;;;;;5091842;28;20678;-52
2021/05/03 07:25:35;;;;;;;7.03;5.50;;;13.10;42.50;;;;;;5096685;28;20656;-54
2021/05/03 07:28:02;;;;;;;5.77;5.27;;;13.30;42.30;;;;;;5090679;28;20624;-53
2021/05/03 07:30:29;;;;;;;5.40;5.00;;;13.50;42.10;;;;;;5090948;28;20620;-53
2021/05/03 07:32:56;;;;;;;6.10;5.60;;;13.50;41.70;;;;;;5090398;28;20615;-53
2021/05/03 07:35:22;;;;;;;5.30;4.70;;;13.40;41.50;;;;;;5078705;28;21280;-53
2021/05/03 07:37:50;;;;;;;5.70;5.20;;;13.30;41.50;;;;;;5092025;28;20628;-53
2021/05/03 07:40:17;;;;;;;6.87;5.47;;;13.30;41.90;;;;;;5086401;28;20660;-53
2021/05/03 07:42:44;;;;;;;7.00;6.40;;;13.50;41.70;;;;;;5086033;28;20621;-52
2021/05/03 07:45:13;;;;;;;5.93;5.33;;;13.60;41.90;;;;;;5084703;28;20683;-52
2021/05/03 07:47:40;;;;;;;5.93;5.23;;;13.80;41.30;;;;;;5070116;28;20633;-52
2021/05/03 07:50:07;;;;;;;6.57;5.93;;;13.90;40.90;;;;;;5073214;28;20932;-52
2021/05/03 07:52:34;;;;;;;6.00;5.40;;;14.10;41.00;;;;;;5089332;28;20624;-52
2021/05/03 07:55:01;;;;;;;6.90;6.23;;;14.20;41.40;;;;;;5089356;28;20629;-52
2021/05/03 07:57:28;;;;;;;6.50;5.83;;;14.30;40.80;;;;;;5089148;28;21182;-52
2021/05/03 07:59:55;;;;;;;8.40;6.23;;;14.30;40.60;;;;;;5090582;28;20656;-52
2021/05/03 08:02:22;;;;;;;6.57;6.07;;;14.30;40.40;;;;;;5088112;28;20643;-53
2021/05/03 08:04:49;;;;;;;6.50;5.00;;;14.40;40.10;;;;;;5090223;28;20613;-53
2021/05/03 08:07:15;;;;;;;6.93;5.53;;;14.50;40.00;;;;;;5090162;28;20624;-53
2021/05/03 08:09:44;;;;;;;7.00;5.10;;;14.60;40.30;;;;;;5090195;28;20782;-53
2021/05/03 08:12:11;;;;;;;6.30;5.70;;;14.70;39.80;;;;;;5072334;28;20674;-53
2021/05/03 08:14:38;;;;;;;6.00;5.40;;;14.60;39.20;;;;;;5081910;28;20671;-52
2021/05/03 08:17:06;;;;;;;6.97;6.37;;;14.60;39.50;;;;;;5086518;28;20659;-53
2021/05/03 08:19:33;;;;;;;7.50;6.57;;;14.70;39.60;;;;;;5093800;28;21188;-54
2021/05/03 08:22:01;;;;;;;6.87;6.17;;;14.80;39.30;;;;;;5094509;28;20858;-54
2021/05/03 08:24:28;;;;;;;7.40;6.10;;;14.90;39.30;;;;;;5093886;28;20723;-54
2021/05/03 08:26:55;;;;;;;7.60;7.00;;;14.90;38.60;;;;;;5094448;28;20664;-53
2021/05/03 08:29:22;;;;;;;7.33;6.23;;;14.80;38.90;;;;;;5093321;28;20627;-52
2021/05/03 08:31:49;;;;;;;7.10;6.60;;;14.90;38.90;;;;;;5090458;28;21225;-54
2021/05/03 08:34:16;;;;;;;6.23;5.73;;;15.00;39.00;;;;;;5094118;28;20627;-51
2021/05/03 08:36:43;;;;;;;6.70;6.10;;;15.20;38.80;;;;;;5094482;28;20647;-53
2021/05/03 08:39:10;;;;;;;7.10;6.23;;;15.30;38.40;;;;;;5093332;28;20623;-53
2021/05/03 08:41:38;;;;;;;7.00;6.43;;;15.50;37.30;;;;;;5093388;28;20691;-53
2021/05/03 08:44:05;;;;;;;7.33;6.63;;;15.40;36.00;;;;;;5094114;28;20979;-53
2021/05/03 08:46:38;;;;;;;6.97;6.37;;;15.30;35.10;;;;;;5093869;28;20705;-52
2021/05/03 08:49:08;;;;;;;7.40;6.77;;;15.40;35.50;;;;;;5094123;28;20636;-51
2021/05/03 08:51:42;;;;;;;7.23;6.63;;;15.50;36.10;;;;;;5093744;28;20683;-53
2021/05/03 08:54:14;;;;;;;7.10;6.47;;;15.60;35.90;;;;;;5093499;28;20624;-53
2021/05/03 08:56:40;;;;;;;8.77;7.97;;;15.80;36.00;;;;;;5094070;28;20693;-51
2021/05/03 08:59:07;;;;;;;7.53;6.93;;;15.70;35.50;;;;;;5085610;28;20689;-53
2021/05/03 09:01:35;;;;;;;8.70;8.00;;;15.60;36.00;;;;;;5093487;28;21138;-53
2021/05/03 09:04:02;;;;;;;10.87;8.07;;;15.70;35.70;;;;;;5093150;28;20994;-53
2021/05/03 09:06:29;;;;;;;6.93;6.27;;;15.70;35.80;;;;;;5092720;28;20720;-52
2021/05/03 09:09:04;;;;;;;9.70;7.40;;;15.50;36.00;;;;;;5092438;28;20631;-52
2021/05/03 09:11:31;;;;;;;7.80;7.03;;;15.40;36.60;;;;;;5093739;28;20641;-53
2021/05/03 09:14:08;;;;;;;8.80;8.10;;;15.40;36.70;;;;;;5093091;28;20675;-54
2021/05/03 09:16:42;;;;;;;7.93;7.27;;;15.50;36.70;;;;;;5098454;28;20704;-52
2021/05/03 09:19:09;;;;;;;7.60;6.90;;;15.60;36.40;;;;;;5092846;28;20980;-54
2021/05/03 09:21:37;;;;;;;8.80;8.00;;;15.80;36.70;;;;;;5093112;28;20656;-53
2021/05/03 09:24:12;;;;;;;8.77;7.97;;;16.00;36.20;;;;;;5092286;28;21184;-53
2021/05/03 09:26:43;;;;;;;8.23;7.50;;;16.00;36.00;;;;;;5092461;28;20712;-52
2021/05/03 09:29:33;;;;;;;8.57;7.87;;;16.10;36.60;;;;;;5092075;28;21144;-52
2021/05/03 09:32:11;;;;;;;6.73;6.10;;;16.50;36.30;;;;;;5088246;28;20646;-53
2021/05/03 09:34:39;;;;;;;9.23;7.00;;;16.70;35.10;;;;;;5092787;28;20619;-54
2021/05/03 09:37:27;;;;;;;7.07;6.47;;;16.70;35.00;;;;;;5093005;28;20725;-54
2021/05/03 09:39:58;;;;;;;8.13;7.43;;;16.40;34.80;;;;;;5092261;28;20639;-54
2021/05/03 09:42:25;;;;;;;8.40;7.70;;;16.10;35.40;;;;;;5092996;28;20934;-54
2021/05/03 09:45:05;;;;;;;8.83;7.93;;;16.20;35.60;;;;;;5088274;28;20628;-53
2021/05/03 09:47:33;;;;;;;7.77;7.07;;;16.50;36.40;;;;;;5087490;28;20624;-52
2021/05/03 09:50:03;;;;;;;7.60;7.00;;;17.20;34.20;;;;;;5092783;28;20671;-53
2021/05/03 09:52:30;;;;;;;7.27;6.57;;;17.40;33.00;;;;;;5098151;28;20616;-53
2021/05/03 09:54:57;;;;;;;6.47;5.70;;;17.30;33.00;;;;;;5113546;28;20637;-53
2021/05/03 09:57:24;;;;;;;6.57;6.07;;;17.30;32.30;;;;;;5105121;28;21029;-53
2021/05/03 09:59:53;;;;;;;7.30;6.70;;;17.10;32.10;;;;;;5093306;28;20627;-52
2021/05/03 10:02:22;;;;;;;7.77;7.07;;;16.90;33.10;;;;;;5097540;28;20655;-55
2021/05/03 10:04:56;;;;;;;6.90;6.27;;;16.90;33.60;;;;;;5096334;28;20621;-55
2021/05/03 10:07:24;;;;;;;8.20;7.40;;;17.00;33.40;;;;;;5073503;28;20617;-53
2021/05/03 10:09:55;;;;;;;7.80;7.20;;;16.90;33.60;;;;;;5092340;28;20632;-54
2021/05/03 10:12:22;;;;;;;6.60;6.00;;;17.00;33.70;;;;;;5091681;28;20665;-53
2021/05/03 10:14:49;;;;;;;7.57;5.93;;;17.10;32.30;;;;;;5091373;28;20624;-54
2021/05/03 10:17:17;;;;;;;5.20;4.80;;;17.10;30.80;;;;;;5091107;28;20620;-54
2021/05/03 10:19:44;;;;;;;8.57;5.13;;;17.10;31.50;;;;;;5091754;28;20660;-53
2021/05/03 10:22:16;;;;;;;5.67;5.17;;;17.30;30.90;;;;;;5091546;28;20708;-53
2021/05/03 10:24:43;;;;;;;6.07;5.47;;;17.40;30.50;;;;;;5092328;28;20788;-54
2021/05/03 10:27:10;;;;;;;5.90;5.40;;;17.00;30.20;;;;;;5088586;28;20667;-54
2021/05/03 10:29:44;;;;;;;8.77;6.27;;;17.10;31.10;;;;;;5090880;28;20620;-54
2021/05/03 10:32:12;;;;;;;5.10;4.70;;;17.40;30.50;;;;;;5092030;28;20674;-54
2021/05/03 10:34:46;;;;;;;5.27;4.77;;;17.70;30.30;;;;;;5091921;28;20632;-55
2021/05/03 10:37:52;;;;;;;4.07;3.77;;;17.90;30.00;;;;;;5092085;28;20620;-54
2021/05/03 10:40:50;;;;;;;6.33;5.47;;;17.80;29.00;;;;;;5090436;28;20620;-53
2021/05/03 10:43:35;;;;;;;4.77;4.30;;;17.40;29.20;;;;;;5091366;28;20628;-52
2021/05/03 10:46:09;;;;;;;5.13;4.67;;;17.10;29.30;;;;;;5083738;28;20687;-54
2021/05/03 10:48:49;;;;;;;5.33;4.80;;;17.10;29.70;;;;;;5091636;28;20632;-54
2021/05/03 10:51:46;;;;;;;4.37;3.70;;;17.20;29.20;;;;;;5094429;28;21172;-54
2021/05/03 10:54:33;;;;;;;4.57;4.23;;;17.30;28.70;;;;;;5111501;28;20958;-54
2021/05/03 10:57:02;;;;;;;6.60;4.20;;;17.20;28.50;;;;;;5111884;28;21011;-54
2021/05/03 10:59:45;;;;;;;4.43;4.03;;;17.20;29.30;;;;;;5091907;28;20652;-53
2021/05/03 11:02:16;;;;;;;5.07;4.57;;;17.30;29.00;;;;;;5091911;28;20656;-54
2021/05/03 11:05:10;;;;;;;4.13;3.83;;;17.40;29.10;;;;;;5102932;28;20642;-53
2021/05/03 11:07:59;;;;;;;4.73;4.13;;;17.30;29.00;;;;;;5090336;28;21196;-54
2021/05/03 11:10:53;;;;;;;4.00;3.73;;;17.30;29.10;;;;;;5074625;28;20629;-54
2021/05/03 11:13:51;;;;;;;3.40;3.10;;;17.10;28.70;;;;;;5092392;28;20689;-54
2021/05/03 11:16:47;;;;;;;3.17;2.87;;;17.00;29.10;;;;;;5088195;28;20650;-54
2021/05/03 11:19:36;;;;;;;7.13;4.83;;;16.80;29.00;;;;;;5090066;28;20628;-54
2021/05/03 11:22:03;;;;;;;5.40;3.20;;;16.60;29.10;;;;;;5091003;28;21264;-54
2021/05/03 11:24:33;;;;;;;4.47;4.00;;;16.60;28.70;;;;;;5091004;28;20624;-54
2021/05/03 11:27:04;;;;;;;4.60;4.10;;;16.50;29.50;;;;;;5089566;28;20717;-53
2021/05/03 11:29:37;;;;;;;5.57;4.17;;;16.30;30.00;;;;;;5090357;28;20689;-54
2021/05/03 11:32:05;;;;;;;4.03;3.73;;;16.30;30.20;;;;;;5090528;28;20623;-53
2021/05/03 11:34:36;;;;;;;4.93;4.30;;;16.30;30.30;;;;;;5091524;28;20658;-52
2021/05/03 11:37:06;;;;;;;3.90;3.47;;;16.50;30.40;;;;;;5110927;28;20643;-54
2021/05/03 11:39:43;;;;;;;4.87;4.47;;;16.90;30.80;;;;;;5097973;28;20629;-53
2021/05/03 11:44:56;;;;;;;5.30;3.93;;;17.00;29.80;;;;;;5057447;28;20616;-55
2021/05/03 11:47:28;;;;;;;5.07;4.60;;;17.00;29.80;;;;;;5090794;28;20612;-52
2021/05/03 11:49:55;;;;;;;6.63;3.80;;;17.10;29.30;;;;;;5090781;28;20655;-54
2021/05/03 11:52:29;;;;;;;4.03;3.60;;;17.20;29.70;;;;;;5093112;28;21234;-54
2021/05/03 11:55:05;;;;;;;5.13;4.07;;;17.60;29.80;;;;;;5094721;28;21219;-55
2021/05/03 11:57:32;;;;;;;8.33;4.63;;;17.80;29.60;;;;;;5095174;28;20624;-56
2021/05/03 12:00:01;;;;;;;4.60;4.20;;;18.00;29.50;;;;;;5094648;28;20620;-54
2021/05/03 12:02:28;;;;;;;5.00;4.70;;;18.40;29.30;;;;;;5076501;28;20654;-54
2021/05/03 12:04:55;;;;;;;4.73;4.33;;;18.90;29.30;;;;;;5082821;28;20692;-54
2021/05/03 12:07:22;;;;;;;5.40;5.03;;;19.20;29.10;;;;;;5114465;28;20623;-55
2021/05/03 12:10:00;;;;;;;6.97;5.77;;;19.00;28.20;;;;;;5114482;28;20630;-53
2021/05/03 12:12:33;;;;;;;5.10;4.70;;;18.70;28.40;;;;;;5096354;28;20980;-53
2021/05/03 12:15:01;;;;;;;4.93;4.40;;;18.60;28.60;;;;;;5114379;28;20631;-54
2021/05/03 12:17:29;;;;;;;4.90;4.50;;;18.50;28.50;;;;;;5096179;28;20717;-55
2021/05/03 12:19:56;;;;;;;3.80;3.50;;;18.40;28.40;;;;;;5114773;28;20672;-55
2021/05/03 12:22:23;;;;;;;4.20;3.83;;;18.70;28.70;;;;;;5114638;28;20679;-54
2021/05/03 12:24:51;;;;;;;3.67;3.33;;;19.20;27.60;;;;;;5114837;28;20637;-53
2021/05/03 12:27:18;;;;;;;3.70;3.40;;;19.50;27.70;;;;;;5111911;28;20878;-54
2021/05/03 12:29:46;;;;;;;4.20;3.90;;;19.70;27.30;;;;;;5081574;28;20628;-52
2021/05/03 12:32:15;;;;;;;4.90;4.50;;;19.70;27.40;;;;;;5094375;28;20628;-53
2021/05/03 12:34:43;;;;;;;6.20;5.07;;;19.40;27.00;;;;;;5094402;28;21057;-52
2021/05/03 12:37:14;;;;;;;4.77;4.37;;;19.40;27.50;;;;;;5075506;28;20620;-53
2021/05/03 12:39:58;;;;;;;5.50;4.10;;;19.50;27.30;;;;;;5094511;28;20669;-54
2021/05/03 12:42:30;;;;;;;5.47;4.53;;;19.60;28.00;;;;;;5088802;28;20692;-51
2021/05/03 12:45:00;;;;;;;5.03;4.43;;;19.80;28.00;;;;;;5094115;28;20620;-53
2021/05/03 12:47:35;;;;;;;4.23;3.93;;;20.10;27.40;;;;;;5093522;28;20809;-52
2021/05/03 12:50:09;;;;;;;4.93;4.53;;;20.10;27.10;;;;;;5090798;28;21194;-53
2021/05/03 12:52:41;;;;;;;4.50;3.90;;;20.00;27.50;;;;;;5087921;28;20655;-54
2021/05/03 12:55:15;;;;;;;4.53;4.07;;;19.80;27.40;;;;;;5093805;28;20686;-53
2021/05/03 12:57:55;;;;;;;4.57;4.17;;;19.90;27.70;;;;;;5093734;28;21014;-53
2021/05/03 13:00:26;;;;;;;4.80;4.33;;;20.30;26.60;;;;;;5093709;28;20739;-54
2021/05/03 13:03:04;;;;;;;3.83;3.53;;;20.40;26.60;;;;;;5093528;28;20648;-53
2021/05/03 13:05:36;;;;;;;4.27;3.70;;;20.60;26.90;;;;;;5092401;28;20648;-52
2021/05/03 13:08:14;;;;;;;4.33;3.57;;;20.90;26.10;;;;;;5093190;28;20632;-53